createdAt,value
2023-05-09T05:01:11.653Z,474.00
2023-05-09T05:02:11.501Z,476.00
2023-05-09T05:03:11.520Z,478.00
2023-05-09T05:04:11.570Z,482.00
2023-05-09T05:05:12.585Z,481.00
2023-05-09T05:06:11.657Z,481.00
2023-05-09T05:07:11.645Z,482.00
2023-05-09T05:08:11.670Z,482.00
2023-05-09T05:09:11.685Z,482.00
2023-05-09T05:10:11.709Z,482.00
2023-05-09T05:11:11.759Z,480.00
2023-05-09T05:12:11.833Z,479.00
2023-05-09T05:13:11.883Z,478.00
2023-05-09T05:14:11.900Z,476.00
2023-05-09T05:15:12.043Z,479.00
2023-05-09T05:16:12.065Z,481.00
2023-05-09T05:17:12.136Z,481.00
2023-05-09T05:18:12.088Z,482.00
2023-05-09T05:19:12.101Z,481.00
2023-05-09T05:20:12.153Z,480.00
2023-05-09T05:21:12.188Z,481.00
2023-05-09T05:22:12.293Z,480.00
2023-05-09T05:23:12.261Z,482.00
2023-05-09T05:24:12.280Z,484.00
2023-05-09T05:25:12.438Z,483.00
2023-05-09T05:26:12.306Z,481.00
2023-05-09T05:27:12.400Z,480.00
2023-05-09T05:28:12.436Z,480.00
2023-05-09T05:29:12.406Z,481.00
2023-05-09T05:30:12.463Z,482.00
2023-05-09T05:31:12.543Z,485.00
2023-05-09T05:32:12.499Z,485.00
2023-05-09T05:33:12.614Z,487.00
2023-05-09T05:34:12.584Z,485.00
2023-05-09T05:35:12.795Z,486.00
2023-05-09T05:36:12.615Z,484.00
2023-05-09T05:37:12.645Z,484.00
2023-05-09T05:38:12.629Z,483.00
2023-05-09T05:39:12.650Z,481.00
2023-05-09T05:40:12.893Z,483.00
2023-05-09T05:41:12.685Z,485.00
2023-05-09T05:42:12.726Z,486.00
2023-05-09T05:43:12.890Z,489.00
2023-05-09T05:44:12.772Z,492.00
2023-05-09T05:45:12.906Z,493.00
2023-05-09T05:46:12.899Z,494.00
2023-05-09T05:47:12.842Z,497.00
2023-05-09T05:48:12.845Z,496.00
2023-05-09T05:49:12.953Z,499.00
2023-05-09T07:40:12.657Z,622.00
2023-05-09T07:41:12.344Z,625.00
2023-05-09T07:42:12.331Z,617.00
2023-05-09T07:43:12.307Z,609.00
2023-05-09T07:44:12.319Z,613.00
2023-05-09T07:45:12.514Z,615.00
2023-05-09T07:46:12.347Z,622.00
2023-05-09T07:47:12.268Z,632.00
2023-05-09T07:48:12.347Z,644.00
2023-05-09T07:49:12.288Z,666.00
2023-05-09T07:50:12.268Z,685.00
2023-05-09T07:51:12.262Z,689.00
2023-05-09T07:52:12.246Z,688.00
2023-05-09T07:53:12.265Z,688.00
2023-05-09T07:54:12.216Z,695.00
2023-05-09T07:55:12.316Z,706.00
2023-05-09T07:56:12.328Z,718.00
2023-05-09T07:57:12.222Z,724.00
2023-05-09T07:58:12.225Z,747.00
2023-05-09T07:59:12.257Z,748.00
2023-05-09T08:00:12.184Z,755.00
2023-05-09T08:01:12.169Z,760.00
2023-05-09T08:02:12.211Z,760.00
2023-05-09T08:03:12.267Z,753.00
2023-05-09T08:04:12.241Z,741.00
2023-05-09T08:05:12.205Z,716.00
2023-05-09T08:06:12.200Z,703.00
2023-05-09T08:07:12.159Z,698.00
2023-05-09T08:08:12.150Z,695.00
2023-05-09T08:09:12.127Z,693.00
2023-05-09T08:10:12.125Z,690.00
2023-05-09T08:11:12.128Z,689.00
2023-05-09T08:12:12.262Z,687.00
2023-05-09T08:13:12.187Z,683.00
2023-05-09T08:14:12.802Z,683.00
2023-05-09T08:15:12.206Z,680.00
2023-05-09T08:16:12.152Z,676.00
2023-05-09T08:17:12.098Z,671.00
2023-05-09T08:18:12.044Z,668.00
2023-05-09T08:19:12.065Z,664.00
2023-05-09T08:20:12.043Z,659.00
2023-05-09T08:21:12.096Z,644.00
2023-05-09T08:22:12.043Z,638.00
2023-05-09T08:23:12.067Z,628.00
2023-05-09T08:24:12.036Z,626.00
2023-05-09T08:25:12.053Z,622.00
2023-05-09T08:26:11.996Z,622.00
2023-05-09T08:27:12.018Z,621.00
2023-05-09T08:28:12.153Z,620.00
2023-05-09T08:29:11.985Z,639.00
2023-05-09T08:30:11.966Z,673.00
2023-05-09T08:31:12.021Z,678.00
2023-05-09T08:32:12.026Z,719.00
2023-05-09T08:33:12.090Z,718.00
2023-05-09T08:34:11.980Z,726.00
2023-05-09T08:35:11.975Z,730.00
2023-05-09T08:36:11.933Z,746.00
2023-05-09T08:37:14.451Z,761.00
2023-05-09T08:38:11.963Z,770.00
2023-05-09T08:39:11.912Z,782.00
2023-05-09T08:40:11.960Z,846.00
2023-05-09T08:41:11.903Z,873.00
2023-05-09T08:42:11.934Z,880.00
2023-05-09T08:43:11.934Z,889.00
2023-05-09T08:44:12.034Z,937.00
2023-05-09T08:45:11.889Z,947.00
2023-05-09T08:46:11.928Z,958.00
2023-05-09T08:47:11.882Z,971.00
2023-05-09T08:48:11.882Z,969.00
2023-05-09T08:49:11.871Z,970.00
2023-05-09T08:50:12.055Z,975.00
2023-05-09T08:51:11.840Z,982.00
2023-05-09T08:52:11.855Z,986.00
2023-05-09T08:53:11.828Z,997.00
2023-05-09T08:54:11.808Z,1016.00
2023-05-09T08:55:11.856Z,1026.00
2023-05-09T08:56:11.825Z,1033.00
2023-05-09T08:57:11.793Z,1040.00
2023-05-09T08:58:11.811Z,1055.00
2023-05-09T08:59:11.791Z,1069.00
2023-05-09T09:00:11.887Z,1080.00
2023-05-09T09:01:11.793Z,1090.00
2023-05-09T09:02:11.839Z,1099.00
2023-05-09T09:03:11.881Z,1104.00
2023-05-09T09:04:11.747Z,1107.00
2023-05-09T09:05:23.855Z,1106.00
2023-05-09T09:06:12.727Z,1103.00
2023-05-09T09:07:11.756Z,1106.00
2023-05-09T09:08:11.737Z,1092.00
2023-05-09T09:09:11.736Z,1095.00
2023-05-09T09:10:11.709Z,1080.00
2023-05-09T09:11:11.705Z,1066.00
2023-05-09T09:12:11.708Z,1056.00
2023-05-09T09:13:11.729Z,1045.00
2023-05-09T09:14:11.659Z,1090.00
2023-05-09T09:15:11.660Z,1106.00
2023-05-09T09:16:11.766Z,1055.00
2023-05-09T09:17:11.687Z,1062.00
2023-05-09T09:18:11.734Z,1050.00
2023-05-09T09:19:11.652Z,1052.00
2023-05-09T09:20:11.667Z,1057.00
2023-05-09T09:21:11.641Z,1054.00
2023-05-09T09:22:11.622Z,1053.00
2023-05-09T09:23:11.582Z,1051.00
2023-05-09T09:24:11.607Z,1034.00
2023-05-09T09:25:11.605Z,963.00
2023-05-09T09:26:11.583Z,950.00
2023-05-09T09:27:11.610Z,856.00
2023-05-09T09:28:11.576Z,900.00
2023-05-09T09:29:11.559Z,798.00
2023-05-09T09:30:11.565Z,869.00
2023-05-09T09:31:11.599Z,860.00
2023-05-09T09:32:11.774Z,842.00
2023-05-09T09:33:11.694Z,737.00
2023-05-09T09:34:11.699Z,703.00
2023-05-09T09:35:11.765Z,702.00
2023-05-09T09:36:11.821Z,712.00
2023-05-09T09:37:11.836Z,711.00
2023-05-09T09:38:11.894Z,715.00
2023-05-09T09:39:11.966Z,712.00
2023-05-09T09:40:12.282Z,715.00
2023-05-09T09:41:12.061Z,710.00
2023-05-09T09:42:12.104Z,679.00
2023-05-09T09:43:12.176Z,654.00
2023-05-09T09:44:12.216Z,643.00
2023-05-09T09:45:12.277Z,630.00
2023-05-09T09:46:12.374Z,614.00
2023-05-09T09:47:12.398Z,605.00
2023-05-09T09:48:12.597Z,602.00
2023-05-09T09:49:12.484Z,586.00
2023-05-09T09:50:12.705Z,581.00
2023-05-09T09:51:12.611Z,582.00
2023-05-09T09:52:12.669Z,582.00
2023-05-09T09:53:12.756Z,587.00
2023-05-09T09:54:12.680Z,584.00
2023-05-09T09:55:12.695Z,585.00
2023-05-09T09:56:12.700Z,590.00
2023-05-09T09:57:12.714Z,587.00
2023-05-09T09:58:12.746Z,585.00
2023-05-09T09:59:12.723Z,615.00
2023-05-09T10:00:12.890Z,595.00
2023-05-09T10:01:12.754Z,596.00
2023-05-09T10:02:12.746Z,598.00
2023-05-09T10:03:12.877Z,606.00
2023-05-09T10:04:12.841Z,602.00
2023-05-09T10:05:12.732Z,595.00
2023-05-09T10:06:12.750Z,583.00
2023-05-09T10:07:14.926Z,570.00
2023-05-09T10:08:12.807Z,554.00
2023-05-09T10:09:12.817Z,538.00
2023-05-09T10:10:13.252Z,525.00
2023-05-09T10:11:12.832Z,522.00
2023-05-09T10:12:12.797Z,521.00
2023-05-09T10:13:12.940Z,522.00
2023-05-09T10:14:12.885Z,524.00
2023-05-09T10:15:12.850Z,523.00
2023-05-09T10:16:13.122Z,530.00
2023-05-09T10:17:12.917Z,535.00
2023-05-09T10:18:12.983Z,611.00
2023-05-09T10:19:12.911Z,651.00
2023-05-09T10:20:13.414Z,652.00
2023-05-09T10:21:13.115Z,657.00
2023-05-09T10:22:13.117Z,661.00
2023-05-09T10:23:13.171Z,675.00
2023-05-09T10:24:13.253Z,697.00
2023-05-09T10:25:13.582Z,690.00
2023-05-09T10:26:13.375Z,616.00
2023-05-09T10:27:13.462Z,583.00
2023-05-09T10:28:13.480Z,556.00
2023-05-09T10:29:13.540Z,544.00
2023-05-09T10:30:13.549Z,536.00
2023-05-09T10:31:13.585Z,529.00
2023-05-09T10:32:13.584Z,526.00
2023-05-09T10:33:13.622Z,525.00
2023-05-09T10:34:13.647Z,532.00
2023-05-09T10:35:13.923Z,531.00
2023-05-09T10:36:13.828Z,528.00
2023-05-09T10:37:13.727Z,524.00
2023-05-09T10:38:13.741Z,522.00
2023-05-09T10:39:13.822Z,523.00
2023-05-09T10:40:13.762Z,522.00
2023-05-09T10:41:13.753Z,518.00
2023-05-09T10:42:13.757Z,515.00
2023-05-09T10:43:13.757Z,511.00
2023-05-09T10:44:13.772Z,513.00
2023-05-09T10:45:14.107Z,517.00
2023-05-09T10:46:13.813Z,519.00
2023-05-09T10:47:13.780Z,514.00
2023-05-09T10:48:13.822Z,514.00
2023-05-09T10:49:13.816Z,515.00
2023-05-09T10:50:13.834Z,512.00
2023-05-09T10:51:13.843Z,515.00
2023-05-09T10:52:13.923Z,517.00
2023-05-09T10:53:13.847Z,518.00
2023-05-09T10:54:13.860Z,518.00
2023-05-09T10:55:13.988Z,520.00
2023-05-09T10:56:13.903Z,523.00
2023-05-09T10:57:13.964Z,523.00
2023-05-09T10:58:13.994Z,525.00
2023-05-09T10:59:14.068Z,532.00
2023-05-09T11:00:14.135Z,537.00
2023-05-09T11:01:14.229Z,541.00
2023-05-09T11:02:14.231Z,550.00
2023-05-09T11:03:14.339Z,559.00
2023-05-09T11:04:14.514Z,560.00
2023-05-09T11:05:14.566Z,556.00
2023-05-09T11:06:14.478Z,553.00
2023-05-09T11:07:14.820Z,547.00
2023-05-09T11:08:14.678Z,540.00
2023-05-09T11:09:14.656Z,537.00
2023-05-09T11:10:14.686Z,542.00
2023-05-09T11:11:14.757Z,547.00
2023-05-09T11:12:14.829Z,603.00
2023-05-09T11:13:14.924Z,622.00
2023-05-09T11:14:14.921Z,629.00
2023-05-09T11:15:15.175Z,632.00
2023-05-09T11:16:15.078Z,645.00
2023-05-09T11:17:15.113Z,656.00
2023-05-09T11:18:15.306Z,668.00
2023-05-09T11:19:15.216Z,682.00
2023-05-09T11:20:15.332Z,684.00
2023-05-09T11:21:15.334Z,685.00
2023-05-09T11:22:15.377Z,688.00
2023-05-09T11:23:15.396Z,687.00
2023-05-09T11:24:15.521Z,692.00
2023-05-09T11:25:15.657Z,707.00
2023-05-09T11:26:15.510Z,721.00
2023-05-09T11:27:15.542Z,731.00
2023-05-09T11:28:15.546Z,744.00
2023-05-09T11:29:15.553Z,751.00
2023-05-09T11:30:15.652Z,757.00
2023-05-09T11:31:15.556Z,765.00
2023-05-09T11:32:15.841Z,769.00
2023-05-09T11:33:15.591Z,771.00
2023-05-09T11:34:15.582Z,775.00
2023-05-09T11:35:15.944Z,781.00
2023-05-09T11:36:15.638Z,786.00
2023-05-09T11:37:15.592Z,792.00
2023-05-09T11:38:15.605Z,796.00
2023-05-09T11:39:15.592Z,803.00
2023-05-09T11:40:15.749Z,805.00
2023-05-09T11:41:15.593Z,807.00
2023-05-09T11:42:15.590Z,806.00
2023-05-09T11:43:15.577Z,806.00
2023-05-09T11:44:15.603Z,793.00
2023-05-09T11:45:15.724Z,772.00
2023-05-09T11:46:15.630Z,783.00
2023-05-09T11:47:15.574Z,797.00
2023-05-09T11:48:15.581Z,806.00
2023-05-09T11:49:15.600Z,813.00
2023-05-09T11:50:15.638Z,825.00
2023-05-09T11:51:15.577Z,830.00
2023-05-09T11:52:15.599Z,831.00
2023-05-09T11:53:15.553Z,828.00
2023-05-09T11:54:15.638Z,828.00
2023-05-09T11:55:15.753Z,832.00
2023-05-09T11:56:15.656Z,842.00
2023-05-09T11:57:15.580Z,840.00
2023-05-09T11:58:15.597Z,841.00
2023-05-09T11:59:15.672Z,840.00
2023-05-09T12:00:15.787Z,843.00
2023-05-09T12:01:15.683Z,852.00
2023-05-09T12:02:15.720Z,854.00
2023-05-09T12:03:15.777Z,859.00
2023-05-09T12:04:15.729Z,866.00
2023-05-09T12:05:15.956Z,874.00
2023-05-09T12:06:15.688Z,881.00
2023-05-09T12:07:15.722Z,885.00
2023-05-09T12:08:15.744Z,884.00
2023-05-09T12:09:15.788Z,862.00
2023-05-09T12:10:15.858Z,847.00
2023-05-09T12:11:15.851Z,844.00
2023-05-09T12:12:15.940Z,841.00
2023-05-09T12:13:15.957Z,833.00
2023-05-09T12:14:15.899Z,826.00
2023-05-09T12:15:16.271Z,762.00
2023-05-09T12:16:15.972Z,772.00
2023-05-09T12:17:15.974Z,773.00
2023-05-09T12:18:15.956Z,718.00
2023-05-09T12:19:15.941Z,720.00
2023-05-09T12:20:16.008Z,709.00
2023-05-09T12:21:15.992Z,705.00
2023-05-09T12:22:15.939Z,701.00
2023-05-09T12:23:15.941Z,698.00
2023-05-09T12:24:15.912Z,690.00
2023-05-09T12:25:16.125Z,668.00
2023-05-09T12:26:15.951Z,660.00
2023-05-09T12:27:15.954Z,656.00
2023-05-09T12:28:16.036Z,651.00
2023-05-09T12:29:15.942Z,645.00
2023-05-09T12:30:16.009Z,637.00
2023-05-09T12:31:16.028Z,634.00
2023-05-09T12:32:15.987Z,629.00
2023-05-09T12:33:15.952Z,625.00
2023-05-09T12:34:15.969Z,618.00
2023-05-09T12:35:16.146Z,613.00
2023-05-09T12:36:15.949Z,608.00
2023-05-09T12:37:15.933Z,604.00
2023-05-09T12:38:15.969Z,602.00
2023-05-09T12:39:15.943Z,597.00
2023-05-09T12:40:15.997Z,592.00
2023-05-09T12:41:30.905Z,589.00
2023-05-09T12:42:16.973Z,587.00
2023-05-09T12:43:15.931Z,585.00
2023-05-09T12:44:16.041Z,585.00
2023-05-09T12:45:16.103Z,583.00
2023-05-09T12:46:15.960Z,580.00
2023-05-09T12:47:15.968Z,578.00
2023-05-09T12:48:15.909Z,575.00
2023-05-09T12:49:15.916Z,573.00
2023-05-09T12:50:15.928Z,569.00
2023-05-09T12:51:15.887Z,567.00
2023-05-09T12:52:15.900Z,565.00
2023-05-09T12:53:15.903Z,564.00
2023-05-09T12:54:15.876Z,560.00
2023-05-09T12:55:16.121Z,559.00
2023-05-09T12:56:15.874Z,557.00
2023-05-09T12:57:15.859Z,555.00
2023-05-09T12:58:15.846Z,553.00
2023-05-09T12:59:15.835Z,548.00
2023-05-09T13:00:15.877Z,547.00
2023-05-09T13:01:16.022Z,543.00
2023-05-09T13:02:16.072Z,540.00
2023-05-09T13:03:16.106Z,539.00
2023-05-09T13:04:16.118Z,534.00
2023-05-09T13:05:16.433Z,531.00
2023-05-09T13:06:16.261Z,533.00
2023-05-09T13:07:16.295Z,533.00
2023-05-09T13:08:16.346Z,534.00
2023-05-09T13:09:16.398Z,533.00
2023-05-09T13:10:16.435Z,535.00
2023-05-09T13:11:17.285Z,534.00
2023-05-09T13:12:16.557Z,532.00
2023-05-09T13:13:16.660Z,528.00
2023-05-09T13:14:16.667Z,527.00
2023-05-09T13:15:17.220Z,524.00
2023-05-09T13:16:17.979Z,522.00
2023-05-09T13:17:16.896Z,521.00
2023-05-09T13:18:16.925Z,521.00
2023-05-09T13:19:16.981Z,518.00
2023-05-09T13:20:17.306Z,516.00
2023-05-09T13:21:17.110Z,514.00
2023-05-09T13:22:17.156Z,513.00
2023-05-09T13:23:17.231Z,512.00
2023-05-09T13:24:17.311Z,511.00
2023-05-09T13:25:17.363Z,510.00
2023-05-09T13:26:17.442Z,511.00
2023-05-09T13:27:17.495Z,510.00
2023-05-09T13:28:17.554Z,512.00
2023-05-09T13:29:17.628Z,512.00
2023-05-09T13:30:18.160Z,511.00
2023-05-09T13:31:17.872Z,513.00
2023-05-09T13:32:17.893Z,512.00
2023-05-09T13:33:25.886Z,513.00
2023-05-09T13:34:18.858Z,512.00
2023-05-09T13:35:17.907Z,514.00
2023-05-09T13:36:17.858Z,512.00
2023-05-09T13:37:17.843Z,512.00
2023-05-09T13:38:17.843Z,511.00
2023-05-09T13:39:17.825Z,510.00
2023-05-09T13:40:17.932Z,509.00
2023-05-09T13:41:17.834Z,505.00
2023-05-09T13:42:19.172Z,505.00
2023-05-09T13:43:17.911Z,503.00
2023-05-09T13:44:17.924Z,502.00
2023-05-09T13:45:17.969Z,504.00
2023-05-09T13:46:18.114Z,506.00
2023-05-09T13:47:18.086Z,505.00
2023-05-09T13:48:18.263Z,505.00
2023-05-09T13:49:18.211Z,502.00
2023-05-09T13:50:18.559Z,499.00
2023-05-09T13:51:18.297Z,498.00
2023-05-09T13:52:18.377Z,496.00
2023-05-09T13:53:18.408Z,510.00
2023-05-09T13:54:18.471Z,510.00
2023-05-09T13:55:18.557Z,551.00
2023-05-09T13:56:18.573Z,570.00
2023-05-09T13:57:18.628Z,560.00
2023-05-09T13:58:18.683Z,542.00
2023-05-09T13:59:18.766Z,527.00
2023-05-09T14:00:18.986Z,520.00
2023-05-09T14:01:18.952Z,515.00
2023-05-09T14:02:18.930Z,517.00
2023-05-09T14:03:19.015Z,523.00
2023-05-09T14:04:19.000Z,531.00
2023-05-09T14:05:19.029Z,539.00
2023-05-09T14:06:19.128Z,618.00
2023-05-09T14:07:19.158Z,589.00
2023-05-09T14:08:19.225Z,568.00
2023-05-09T14:09:19.273Z,560.00
2023-05-09T14:10:19.492Z,556.00
2023-05-09T14:11:19.392Z,554.00
2023-05-09T14:12:19.407Z,553.00
2023-05-09T14:13:19.549Z,556.00
2023-05-09T14:14:19.519Z,553.00
2023-05-09T14:15:19.572Z,547.00
2023-05-09T14:16:19.668Z,542.00
2023-05-09T14:17:19.724Z,539.00
2023-05-09T14:18:21.138Z,535.00
2023-05-09T14:19:19.774Z,532.00
2023-05-09T14:20:19.954Z,529.00
2023-05-09T14:21:19.865Z,529.00
2023-05-09T14:22:20.023Z,529.00
2023-05-09T14:23:19.975Z,527.00
2023-05-09T14:24:19.984Z,527.00
2023-05-09T14:25:20.050Z,527.00
2023-05-09T14:26:20.094Z,529.00
2023-05-09T14:27:20.117Z,530.00
2023-05-09T14:28:20.170Z,529.00
2023-05-09T14:29:20.190Z,531.00
2023-05-09T14:30:20.266Z,531.00
2023-05-09T14:31:20.294Z,530.00
2023-05-09T14:32:20.275Z,531.00
2023-05-09T14:33:20.304Z,529.00
2023-05-09T14:34:20.350Z,527.00
2023-05-09T14:35:20.413Z,528.00
2023-05-09T14:36:20.495Z,532.00
2023-05-09T14:37:20.427Z,534.00
2023-05-09T14:38:20.434Z,536.00
2023-05-09T14:39:20.429Z,537.00
2023-05-09T14:40:20.519Z,539.00
2023-05-09T14:41:21.551Z,540.00
2023-05-09T14:42:20.502Z,541.00
2023-05-09T14:43:20.516Z,542.00
2023-05-09T14:44:20.520Z,543.00
2023-05-09T14:45:20.604Z,542.00
2023-05-09T14:46:20.598Z,543.00
2023-05-09T14:47:20.584Z,542.00
2023-05-09T14:48:20.565Z,540.00
2023-05-09T14:49:20.591Z,537.00
2023-05-09T14:50:20.559Z,538.00
2023-05-09T14:51:20.589Z,537.00
2023-05-09T14:52:20.684Z,538.00
2023-05-09T14:53:20.574Z,538.00
2023-05-09T14:54:20.612Z,538.00
2023-05-09T14:55:20.605Z,539.00
2023-05-09T14:56:20.592Z,540.00
2023-05-09T14:57:20.613Z,537.00
2023-05-09T14:58:20.632Z,537.00
2023-05-09T14:59:20.637Z,539.00
2023-05-09T15:00:22.302Z,539.00
2023-05-09T15:01:20.613Z,538.00
2023-05-09T15:02:20.629Z,538.00
2023-05-09T15:03:20.627Z,540.00
2023-05-09T15:04:20.652Z,540.00
2023-05-09T15:05:20.679Z,542.00
2023-05-09T15:06:20.625Z,546.00
2023-05-09T15:07:20.647Z,545.00
2023-05-09T15:08:20.732Z,545.00
2023-05-09T15:09:20.684Z,545.00
2023-05-09T15:10:20.656Z,546.00
2023-05-09T15:11:20.640Z,547.00
2023-05-09T15:12:20.690Z,545.00
2023-05-09T15:13:20.773Z,544.00
2023-05-09T15:14:20.676Z,546.00
2023-05-09T15:15:20.658Z,545.00
2023-05-09T15:16:20.677Z,544.00
2023-05-09T15:17:20.639Z,544.00
2023-05-09T15:18:20.645Z,545.00
2023-05-09T15:19:20.654Z,544.00
2023-05-09T15:20:20.645Z,541.00
2023-05-09T15:21:20.654Z,542.00
2023-05-09T15:22:20.619Z,544.00
2023-05-09T15:23:20.685Z,542.00
2023-05-09T15:24:20.706Z,537.00
2023-05-09T15:25:20.632Z,537.00
2023-05-09T15:26:20.621Z,536.00
2023-05-09T15:27:20.616Z,538.00
2023-05-09T15:28:20.605Z,537.00
2023-05-09T15:29:20.625Z,536.00
2023-05-09T15:30:20.585Z,535.00
2023-05-09T15:31:20.669Z,534.00
2023-05-09T15:32:20.612Z,537.00
2023-05-09T15:33:20.617Z,537.00
2023-05-09T15:34:20.577Z,537.00
2023-05-09T15:35:20.607Z,536.00
2023-05-09T15:36:20.571Z,535.00
2023-05-09T15:37:20.583Z,535.00
2023-05-09T15:38:20.594Z,533.00
2023-05-09T15:39:20.610Z,536.00
2023-05-09T15:40:20.661Z,538.00
2023-05-09T15:41:20.565Z,537.00
2023-05-09T15:42:20.579Z,536.00
2023-05-09T15:43:20.556Z,534.00
2023-05-09T15:44:20.557Z,531.00
2023-05-09T15:45:20.569Z,533.00
2023-05-09T15:46:20.642Z,535.00
2023-05-09T15:47:20.634Z,535.00
2023-05-09T15:48:20.586Z,533.00
2023-05-09T15:49:20.586Z,533.00
2023-05-09T15:50:20.606Z,535.00
2023-05-09T15:51:20.597Z,536.00
2023-05-09T15:52:20.582Z,537.00
2023-05-09T15:53:20.626Z,535.00
2023-05-09T15:54:20.612Z,536.00
2023-05-09T15:55:20.694Z,537.00
2023-05-09T15:56:20.720Z,537.00
2023-05-09T15:57:20.614Z,536.00
2023-05-09T15:58:20.633Z,535.00
2023-05-09T15:59:20.629Z,534.00
2023-05-09T16:00:20.632Z,532.00
2023-05-09T16:01:20.689Z,531.00
2023-05-09T16:02:20.668Z,530.00
2023-05-09T16:03:20.775Z,531.00
2023-05-09T16:04:20.665Z,530.00
2023-05-09T16:05:20.684Z,532.00
2023-05-09T16:06:20.656Z,534.00
2023-05-09T16:07:20.892Z,536.00
2023-05-09T16:08:20.665Z,536.00
2023-05-09T16:09:20.685Z,535.00
2023-05-09T16:10:20.640Z,538.00
2023-05-09T16:11:20.663Z,536.00
2023-05-09T16:12:20.753Z,537.00
2023-05-09T16:13:20.689Z,537.00
2023-05-09T16:14:20.713Z,537.00
2023-05-09T16:15:20.669Z,535.00
2023-05-09T16:16:20.720Z,536.00
2023-05-09T16:17:20.680Z,536.00
2023-05-09T16:18:20.704Z,538.00
2023-05-09T16:19:20.701Z,538.00
2023-05-09T16:20:20.686Z,540.00
2023-05-09T16:21:20.732Z,540.00
2023-05-09T16:22:20.694Z,540.00
2023-05-09T16:23:20.738Z,542.00
2023-05-09T16:24:20.710Z,541.00
2023-05-09T16:25:20.698Z,540.00
2023-05-09T16:26:20.749Z,540.00
2023-05-09T16:27:20.727Z,537.00
2023-05-09T16:28:20.808Z,537.00
2023-05-09T16:29:20.759Z,535.00
2023-05-09T16:30:20.745Z,536.00
2023-05-09T16:31:20.822Z,535.00
2023-05-09T16:32:20.768Z,534.00
2023-05-09T16:33:20.791Z,533.00
2023-05-09T16:34:20.768Z,535.00
2023-05-09T16:35:20.802Z,536.00
2023-05-09T16:36:20.832Z,536.00
2023-05-09T16:37:20.847Z,537.00
2023-05-09T16:38:20.829Z,538.00
2023-05-09T16:39:20.832Z,538.00
2023-05-09T16:40:20.826Z,537.00
2023-05-09T16:41:20.844Z,539.00
2023-05-09T16:42:20.873Z,541.00
2023-05-09T16:43:20.863Z,543.00
2023-05-09T16:44:20.980Z,545.00
2023-05-09T16:45:20.958Z,545.00
2023-05-09T16:46:20.950Z,547.00
2023-05-09T16:47:20.929Z,548.00
2023-05-09T16:48:20.914Z,545.00
2023-05-09T16:49:20.933Z,544.00
2023-05-09T16:50:20.927Z,545.00
2023-05-09T16:51:20.995Z,545.00
2023-05-09T16:52:21.006Z,546.00
2023-05-09T16:53:20.989Z,544.00
2023-05-09T16:54:21.013Z,544.00
2023-05-09T16:55:21.027Z,544.00
2023-05-09T16:56:21.026Z,543.00
2023-05-09T16:57:21.030Z,542.00
2023-05-09T16:58:21.119Z,541.00
2023-05-09T16:59:21.087Z,540.00
2023-05-09T17:00:21.091Z,536.00
